Terminal Aerodrome Forecast
Issued by NWS Lake Charles, LA

Home | Current Version | Previous Version | Text Only | Print | Product List | Glossary On
Versions: 1 2 3 4 5 6 7 8 9 10 11 12 13 14 15 16
000
FTUS44 KLCH 200700 AAA
TAFBPT
TAF AMD
KBPT 200726Z 2007/2106 08006KT P6SM SCT100
     FM201500 09010KT P6SM SCT035
     FM202300 07003KT P6SM FEW050 FEW100
     FM210500 07005KT 3SM BR SKC=

USA.gov is the U.S. government's official web portal to all federal, state and local government web resources and services.